Time;durP1;ratioP1;P1;durP2;ratioP2;P2;SDS_P1;SDS_P2;PMS_P1;PMS_P2;Temp;Humidity;BMP_temperature;BMP_pressure;BME280_temperature;BME280_humidity;BME280_pressure;Samples;Min_cycle;Max_cycle;Signal;HPM_P1;HPM_P2
2023/07/03 00:01:49;;;;;;;17.60;6.97;;;19.80;79.10;;;;;;5085878;28;20069;-78
2023/07/03 00:04:15;;;;;;;17.80;7.00;;;19.80;79.20;;;;;;5090911;28;20020;-78
2023/07/03 00:06:40;;;;;;;18.13;7.15;;;19.80;79.30;;;;;;5078760;28;20339;-78
2023/07/03 00:09:06;;;;;;;19.20;6.90;;;19.80;79.30;;;;;;5074744;28;20024;-77
2023/07/03 00:11:32;;;;;;;16.65;7.55;;;19.80;79.70;;;;;;5074061;28;20024;-78
2023/07/03 00:13:58;;;;;;;18.27;7.15;;;19.80;79.90;;;;;;5074518;28;20055;-78
2023/07/03 00:16:24;;;;;;;14.73;6.85;;;19.80;80.00;;;;;;5073713;28;20465;-78
2023/07/03 00:18:49;;;;;;;16.95;6.50;;;19.80;80.40;;;;;;5074649;28;20056;-78
2023/07/03 00:21:15;;;;;;;15.77;6.70;;;19.80;80.50;;;;;;5073973;28;20020;-79
2023/07/03 00:23:40;;;;;;;15.13;6.47;;;19.80;80.70;;;;;;5074082;28;20020;-78
2023/07/03 00:26:06;;;;;;;26.95;7.15;;;19.70;80.70;;;;;;5079657;28;20024;-78
2023/07/03 00:28:31;;;;;;;16.63;6.93;;;19.70;80.90;;;;;;5076631;28;20098;-78
2023/07/03 00:30:57;;;;;;;21.65;6.88;;;19.70;81.30;;;;;;5073718;28;20024;-78
2023/07/03 00:33:22;;;;;;;15.27;6.70;;;19.70;81.40;;;;;;5074045;28;20025;-79
2023/07/03 00:35:48;;;;;;;15.23;6.43;;;19.70;81.60;;;;;;5075285;28;20052;-77
2023/07/03 00:38:14;;;;;;;15.00;6.90;;;19.70;81.60;;;;;;5074000;28;20025;-76
2023/07/03 00:40:39;;;;;;;18.80;6.60;;;19.70;81.90;;;;;;5073870;28;20385;-76
2023/07/03 00:43:05;;;;;;;18.33;7.00;;;19.70;82.20;;;;;;5073985;28;20087;-76
2023/07/03 00:45:32;;;;;;;18.20;6.75;;;19.70;82.10;;;;;;5073281;28;20020;-76
2023/07/03 00:47:58;;;;;;;19.98;7.18;;;19.70;82.50;;;;;;5073440;28;20025;-77
2023/07/03 00:50:24;;;;;;;17.60;6.88;;;19.70;82.70;;;;;;5072962;28;20028;-76
2023/07/03 00:52:55;;;;;;;16.92;6.63;;;19.70;82.80;;;;;;5073628;28;20465;-77
2023/07/03 00:55:22;;;;;;;15.38;6.78;;;19.70;82.90;;;;;;5073301;28;20020;-77
2023/07/03 00:57:47;;;;;;;13.73;6.13;;;19.60;83.30;;;;;;5073558;28;20020;-77
2023/07/03 01:00:13;;;;;;;13.85;6.72;;;19.60;83.40;;;;;;5073567;28;20051;-76
2023/07/03 01:02:48;;;;;;;19.00;7.38;;;19.60;83.90;;;;;;5072924;28;20031;-76
2023/07/03 01:05:27;;;;;;;16.00;6.90;;;19.60;84.10;;;;;;5073661;28;20123;-77
2023/07/03 01:07:53;;;;;;;15.98;6.30;;;19.50;84.50;;;;;;5074456;28;20020;-77
2023/07/03 01:10:23;;;;;;;16.98;6.82;;;19.50;84.70;;;;;;5074262;28;20017;-77
2023/07/03 01:12:55;;;;;;;18.65;7.80;;;19.50;85.10;;;;;;5074156;28;20041;-77
2023/07/03 01:15:28;;;;;;;17.60;7.15;;;19.50;85.00;;;;;;5074204;28;20074;-78
2023/07/03 01:17:56;;;;;;;16.33;6.90;;;19.50;85.50;;;;;;5073472;28;20103;-77
2023/07/03 01:20:24;;;;;;;14.60;6.75;;;19.50;85.60;;;;;;5072522;28;20025;-77
2023/07/03 01:22:58;;;;;;;15.75;6.70;;;19.60;85.70;;;;;;5074508;28;20029;-77
2023/07/03 01:25:25;;;;;;;20.88;6.70;;;19.60;85.40;;;;;;5073848;28;20028;-77
2023/07/03 01:27:52;;;;;;;17.58;6.75;;;19.60;85.70;;;;;;5073211;28;20016;-77
2023/07/03 01:30:20;;;;;;;17.40;6.15;;;19.60;85.90;;;;;;5073878;28;20560;-76
2023/07/03 01:32:49;;;;;;;17.98;7.07;;;19.60;85.80;;;;;;5073600;28;20036;-76
2023/07/03 01:35:16;;;;;;;18.17;6.32;;;19.50;86.00;;;;;;5072731;28;20017;-77
2023/07/03 01:37:46;;;;;;;15.35;6.20;;;19.50;85.90;;;;;;5071860;28;20033;-77
2023/07/03 01:40:15;;;;;;;16.42;6.38;;;19.50;86.90;;;;;;5073732;28;20036;-77
2023/07/03 01:42:42;;;;;;;16.55;6.60;;;19.50;86.30;;;;;;5073571;28;20044;-77
2023/07/03 01:45:09;;;;;;;14.55;6.47;;;19.50;86.30;;;;;;5072244;28;20028;-77
2023/07/03 01:47:35;;;;;;;15.63;6.15;;;19.50;86.20;;;;;;5071550;28;20373;-76
2023/07/03 01:50:03;;;;;;;15.93;6.32;;;19.60;85.80;;;;;;5072200;28;20473;-77
2023/07/03 01:52:42;;;;;;;17.45;6.30;;;19.60;85.90;;;;;;5071377;28;20033;-78
2023/07/03 01:55:27;;;;;;;16.92;6.10;;;19.60;85.80;;;;;;5073798;28;20048;-78
2023/07/03 01:58:08;;;;;;;19.40;6.80;;;19.60;85.60;;;;;;5053633;28;20021;-78
2023/07/03 02:00:40;;;;;;;11.20;5.77;;;19.60;85.80;;;;;;5055614;28;20092;-77
2023/07/03 02:03:17;;;;;;;19.33;6.57;;;19.70;86.20;;;;;;5073469;28;20449;-77
2023/07/03 02:05:45;;;;;;;14.88;6.20;;;19.70;86.40;;;;;;5071772;28;20115;-77
2023/07/03 02:08:12;;;;;;;14.45;6.70;;;19.70;86.20;;;;;;5073614;28;20028;-77
2023/07/03 02:10:38;;;;;;;11.48;5.80;;;19.70;86.10;;;;;;5071757;28;20450;-77
2023/07/03 02:13:03;;;;;;;19.27;6.10;;;19.70;85.70;;;;;;5073564;28;20036;-77
2023/07/03 02:15:29;;;;;;;16.20;6.03;;;19.70;85.80;;;;;;5071418;28;20365;-77
2023/07/03 02:17:55;;;;;;;12.73;5.63;;;19.70;85.60;;;;;;5072973;28;20025;-77
2023/07/03 02:20:21;;;;;;;13.63;6.30;;;19.80;85.70;;;;;;5071758;28;20024;-77
2023/07/03 02:22:47;;;;;;;16.95;5.78;;;19.80;85.50;;;;;;5071410;28;20351;-77
2023/07/03 02:25:13;;;;;;;14.02;6.18;;;19.80;85.50;;;;;;5073296;28;20070;-77
2023/07/03 02:27:42;;;;;;;15.25;6.15;;;19.80;85.50;;;;;;5072299;28;20028;-77
2023/07/03 02:30:08;;;;;;;15.75;6.15;;;19.70;85.50;;;;;;5072585;28;20027;-77
2023/07/03 02:32:36;;;;;;;17.27;6.05;;;19.80;85.70;;;;;;5071110;28;20036;-77
2023/07/03 02:35:02;;;;;;;14.95;5.68;;;19.80;85.90;;;;;;5071972;28;20017;-77
2023/07/03 02:37:27;;;;;;;20.90;5.75;;;19.80;85.60;;;;;;5072376;28;20086;-77
2023/07/03 02:39:53;;;;;;;15.43;5.38;;;19.80;85.80;;;;;;5071456;28;20032;-77
2023/07/03 02:42:19;;;;;;;14.68;5.95;;;19.80;85.70;;;;;;5071602;28;20076;-77
2023/07/03 02:44:44;;;;;;;15.88;5.93;;;19.80;85.70;;;;;;5072646;28;20020;-77
2023/07/03 02:47:10;;;;;;;19.23;6.07;;;19.80;86.10;;;;;;5072879;28;20021;-77
2023/07/03 02:49:35;;;;;;;16.38;5.97;;;19.80;86.00;;;;;;5072606;28;20432;-78
2023/07/03 02:52:01;;;;;;;12.93;6.00;;;19.90;86.20;;;;;;5073007;28;20021;-77
2023/07/03 02:54:27;;;;;;;14.88;6.28;;;19.90;86.70;;;;;;5071334;28;20484;-79
2023/07/03 02:56:52;;;;;;;13.57;5.32;;;19.80;87.20;;;;;;5071269;28;20025;-77
2023/07/03 02:59:18;;;;;;;13.93;6.20;;;19.80;87.50;;;;;;5072005;28;20024;-77
2023/07/03 03:01:43;;;;;;;17.27;6.28;;;19.80;87.90;;;;;;5070877;28;20032;-77
2023/07/03 03:04:09;;;;;;;12.25;5.90;;;19.70;88.00;;;;;;5071658;28;20055;-77
2023/07/03 03:06:36;;;;;;;13.73;6.13;;;19.70;88.20;;;;;;5071576;28;20104;-77
2023/07/03 03:09:02;;;;;;;15.95;6.47;;;19.70;88.40;;;;;;5071720;28;20162;-77
2023/07/03 03:11:27;;;;;;;19.20;6.50;;;19.70;88.80;;;;;;5070858;28;20108;-78
2023/07/03 03:13:53;;;;;;;14.60;6.30;;;19.60;89.00;;;;;;5071563;28;20376;-78
2023/07/03 03:16:18;;;;;;;19.67;6.38;;;19.60;89.40;;;;;;5071871;28;20592;-77
2023/07/03 03:18:47;;;;;;;15.88;6.30;;;19.60;89.70;;;;;;5071735;28;20032;-77
2023/07/03 03:21:15;;;;;;;17.60;6.07;;;19.60;89.90;;;;;;5070269;28;20012;-77
2023/07/03 03:23:40;;;;;;;15.07;5.78;;;19.60;90.30;;;;;;5070485;28;20052;-77
2023/07/03 03:26:06;;;;;;;17.15;5.80;;;19.50;90.20;;;;;;5071440;28;20063;-77
2023/07/03 03:28:33;;;;;;;15.38;6.20;;;19.50;90.40;;;;;;5072061;28;20020;-77
2023/07/03 03:30:59;;;;;;;16.20;6.50;;;19.50;90.50;;;;;;5071258;28;20419;-77
2023/07/03 03:33:25;;;;;;;15.93;6.50;;;19.50;90.60;;;;;;5073861;28;20342;-78
2023/07/03 03:35:51;;;;;;;15.73;6.57;;;19.50;90.70;;;;;;5073428;28;20026;-77
2023/07/03 03:38:16;;;;;;;14.20;6.60;;;19.50;90.90;;;;;;5075675;28;20021;-77
2023/07/03 03:40:59;;;;;;;14.38;6.50;;;19.50;91.00;;;;;;5073458;28;20017;-77
2023/07/03 03:43:24;;;;;;;15.57;6.60;;;19.50;91.00;;;;;;5079083;28;20052;-77
2023/07/03 03:45:58;;;;;;;15.63;6.35;;;19.50;90.90;;;;;;5076353;28;20799;-77
2023/07/03 03:48:25;;;;;;;16.58;6.28;;;19.60;90.80;;;;;;5076274;28;20024;-77
2023/07/03 03:50:51;;;;;;;14.68;6.10;;;19.60;90.90;;;;;;5074197;28;20027;-77
2023/07/03 03:53:17;;;;;;;16.92;5.72;;;19.60;90.90;;;;;;5075910;28;20032;-77
2023/07/03 03:55:43;;;;;;;14.13;6.10;;;19.50;91.00;;;;;;5074322;28;20017;-77
2023/07/03 03:58:09;;;;;;;15.20;6.68;;;19.60;91.10;;;;;;5074982;28;20023;-77
2023/07/03 04:00:35;;;;;;;20.63;6.28;;;19.60;91.10;;;;;;5074163;28;20021;-78
2023/07/03 04:03:01;;;;;;;14.63;5.85;;;19.60;91.10;;;;;;5075987;28;20468;-77
2023/07/03 04:05:27;;;;;;;15.52;6.50;;;19.60;91.10;;;;;;5074477;28;20021;-77
2023/07/03 04:07:52;;;;;;;14.88;6.22;;;19.60;91.00;;;;;;5073921;28;20020;-77
2023/07/03 04:10:18;;;;;;;14.45;6.13;;;19.60;91.00;;;;;;5074655;28;20024;-77
2023/07/03 04:12:43;;;;;;;15.55;6.05;;;19.60;90.80;;;;;;5073904;28;20423;-77
2023/07/03 04:15:09;;;;;;;16.20;5.93;;;19.60;90.70;;;;;;5074636;28;20127;-77
2023/07/03 04:17:35;;;;;;;14.65;6.32;;;19.70;90.60;;;;;;5073867;28;20445;-78
2023/07/03 04:20:01;;;;;;;14.10;5.65;;;19.60;90.70;;;;;;5074192;28;20025;-77
2023/07/03 04:22:26;;;;;;;16.23;6.07;;;19.70;90.50;;;;;;5073844;28;20434;-77
2023/07/03 04:24:52;;;;;;;12.63;5.18;;;19.70;90.60;;;;;;5073489;28;20108;-77
2023/07/03 04:27:19;;;;;;;14.40;5.65;;;19.60;90.60;;;;;;5074268;28;20101;-77
2023/07/03 04:29:44;;;;;;;13.60;5.82;;;19.70;90.70;;;;;;5073100;28;20024;-77
2023/07/03 04:32:10;;;;;;;14.70;6.18;;;19.70;90.60;;;;;;5074386;28;20464;-77
2023/07/03 04:34:36;;;;;;;14.88;5.47;;;19.70;90.70;;;;;;5074456;28;20024;-78
2023/07/03 04:37:03;;;;;;;18.20;5.43;;;19.70;91.10;;;;;;5073664;28;20021;-77
2023/07/03 04:39:30;;;;;;;12.27;5.53;;;19.70;90.90;;;;;;5075023;28;20457;-77
2023/07/03 04:41:59;;;;;;;15.52;5.93;;;19.70;90.90;;;;;;5072579;28;20045;-77
2023/07/03 04:44:26;;;;;;;16.23;5.80;;;19.70;90.90;;;;;;5073717;28;20088;-77
2023/07/03 04:46:55;;;;;;;15.23;5.88;;;19.70;90.90;;;;;;5073005;28;20115;-77
2023/07/03 04:49:29;;;;;;;19.80;6.07;;;19.70;90.90;;;;;;5074842;28;20039;-77
2023/07/03 04:51:54;;;;;;;14.93;5.57;;;19.70;90.80;;;;;;5073255;28;20830;-76
2023/07/03 04:54:20;;;;;;;12.88;5.10;;;19.70;90.90;;;;;;5073277;28;20028;-76
2023/07/03 04:56:48;;;;;;;14.43;6.10;;;19.70;90.90;;;;;;5074277;28;20027;-77
2023/07/03 04:59:17;;;;;;;15.50;5.65;;;19.70;90.90;;;;;;5073479;28;20027;-77
2023/07/03 05:01:42;;;;;;;13.82;5.68;;;19.70;90.90;;;;;;5073783;28;20024;-77
2023/07/03 05:04:09;;;;;;;20.40;6.03;;;19.70;91.00;;;;;;5073732;28;20069;-77
2023/07/03 05:06:35;;;;;;;13.48;5.38;;;19.70;91.10;;;;;;5072782;28;20025;-78
2023/07/03 05:09:01;;;;;;;12.27;5.63;;;19.70;91.20;;;;;;5073164;28;20469;-77
2023/07/03 05:11:27;;;;;;;12.88;5.15;;;19.70;91.10;;;;;;5072499;28;20028;-77
2023/07/03 05:13:52;;;;;;;15.88;5.70;;;19.70;91.20;;;;;;5073040;28;20175;-77
2023/07/03 05:16:18;;;;;;;15.35;5.60;;;19.70;91.20;;;;;;5072755;28;20039;-77
2023/07/03 05:18:44;;;;;;;13.80;5.80;;;19.60;91.40;;;;;;5074095;28;20024;-77
2023/07/03 05:21:10;;;;;;;14.50;5.88;;;19.70;91.50;;;;;;5073568;28;20346;-77
2023/07/03 05:23:36;;;;;;;19.40;6.22;;;19.60;91.60;;;;;;5072885;28;20032;-77
2023/07/03 05:26:02;;;;;;;15.40;6.05;;;19.60;91.60;;;;;;5073307;28;20369;-77
2023/07/03 05:28:28;;;;;;;14.30;5.70;;;19.70;91.70;;;;;;5072878;28;20021;-76
2023/07/03 05:30:58;;;;;;;20.52;6.25;;;19.70;91.60;;;;;;5073297;28;20024;-77
2023/07/03 05:33:25;;;;;;;15.75;5.97;;;19.60;91.80;;;;;;5072770;28;20032;-77
2023/07/03 05:35:51;;;;;;;14.63;5.05;;;19.70;91.90;;;;;;5072409;28;20021;-77
2023/07/03 05:38:18;;;;;;;14.98;5.57;;;19.70;91.80;;;;;;5072846;28;20035;-78
2023/07/03 05:40:44;;;;;;;16.38;5.65;;;19.80;91.80;;;;;;5071719;28;20461;-78
2023/07/03 05:43:10;;;;;;;16.40;5.53;;;19.80;91.80;;;;;;5072065;28;20052;-77
2023/07/03 05:45:36;;;;;;;15.30;5.97;;;19.80;91.80;;;;;;5072198;28;20035;-78
2023/07/03 05:48:02;;;;;;;13.65;5.25;;;19.80;91.80;;;;;;5073441;28;20024;-78
2023/07/03 05:50:28;;;;;;;17.13;5.80;;;19.80;92.10;;;;;;5071933;28;20094;-78
2023/07/03 05:52:56;;;;;;;11.88;5.63;;;19.80;92.00;;;;;;5072299;28;20346;-78
2023/07/03 05:55:22;;;;;;;12.75;5.43;;;19.80;92.00;;;;;;5072764;28;20373;-78
2023/07/03 05:57:48;;;;;;;10.80;5.18;;;19.70;91.90;;;;;;5072913;28;20025;-78
2023/07/03 06:00:14;;;;;;;17.38;5.00;;;19.70;91.60;;;;;;5072444;28;20408;-78
2023/07/03 06:02:44;;;;;;;16.92;5.55;;;19.60;91.60;;;;;;5072987;28;20024;-78
2023/07/03 06:05:11;;;;;;;15.32;5.38;;;19.70;91.60;;;;;;5071364;28;20031;-78
2023/07/03 06:07:37;;;;;;;13.90;5.03;;;19.70;91.60;;;;;;5073641;28;20021;-78
2023/07/03 06:10:03;;;;;;;17.38;5.53;;;19.70;91.80;;;;;;5072168;28;20031;-78
2023/07/03 06:12:29;;;;;;;9.35;4.75;;;19.70;91.70;;;;;;5071728;28;20108;-77
2023/07/03 06:15:00;;;;;;;16.60;5.25;;;19.80;91.60;;;;;;5072573;28;20162;-77
2023/07/03 06:17:27;;;;;;;12.50;4.63;;;19.80;91.40;;;;;;5072727;28;20522;-77
2023/07/03 06:19:54;;;;;;;16.95;4.80;;;19.80;90.80;;;;;;5074512;28;20097;-78
2023/07/03 06:22:19;;;;;;;10.68;4.18;;;19.70;90.70;;;;;;5075743;28;20044;-78
2023/07/03 06:24:45;;;;;;;14.40;4.78;;;19.70;90.60;;;;;;5071005;28;20021;-77
2023/07/03 06:27:12;;;;;;;13.73;4.82;;;19.70;90.90;;;;;;5072185;28;20078;-77
2023/07/03 06:29:37;;;;;;;12.40;5.03;;;19.60;90.80;;;;;;5071612;28;20023;-78
2023/07/03 06:32:04;;;;;;;13.70;4.63;;;19.70;90.90;;;;;;5072984;28;20017;-77
2023/07/03 06:34:29;;;;;;;14.20;4.88;;;19.70;90.90;;;;;;5071858;28;20509;-78
2023/07/03 06:36:55;;;;;;;13.48;4.85;;;19.70;90.40;;;;;;5070920;28;20108;-78
2023/07/03 06:39:21;;;;;;;12.23;4.80;;;19.70;90.60;;;;;;5072071;28;20020;-78
2023/07/03 06:41:46;;;;;;;13.18;4.30;;;19.80;90.60;;;;;;5070683;28;20377;-77
2023/07/03 06:44:15;;;;;;;12.48;4.32;;;19.70;90.40;;;;;;5071691;28;20040;-78
2023/07/03 06:46:42;;;;;;;13.50;4.28;;;19.70;90.30;;;;;;5072791;28;20023;-78
2023/07/03 06:49:07;;;;;;;12.23;3.72;;;19.70;90.10;;;;;;5071798;28;20052;-78
2023/07/03 06:51:34;;;;;;;17.60;4.85;;;19.70;89.00;;;;;;5073037;28;20472;-78
2023/07/03 06:54:01;;;;;;;12.65;3.70;;;19.70;89.70;;;;;;5072534;28;20032;-78
2023/07/03 06:56:29;;;;;;;11.25;3.60;;;19.80;89.20;;;;;;5073540;28;20099;-78
2023/07/03 06:58:54;;;;;;;12.63;3.72;;;19.80;89.10;;;;;;5072554;28;20107;-78
2023/07/03 07:01:23;;;;;;;12.07;3.85;;;19.90;89.70;;;;;;5071759;28;20147;-78
2023/07/03 07:03:49;;;;;;;13.93;4.00;;;19.90;89.20;;;;;;5078272;28;20111;-77
2023/07/03 07:06:17;;;;;;;11.98;4.15;;;19.90;89.50;;;;;;5078760;28;20056;-78
2023/07/03 07:08:43;;;;;;;9.60;3.47;;;19.90;89.30;;;;;;5070546;28;20028;-78
2023/07/03 07:11:14;;;;;;;13.80;3.67;;;19.90;89.60;;;;;;5072527;28;20460;-77
2023/07/03 07:13:42;;;;;;;13.95;4.28;;;20.00;89.20;;;;;;5072612;28;20040;-77
2023/07/03 07:16:35;;;;;;;12.23;3.53;;;20.00;89.20;;;;;;5073994;28;20465;-77
2023/07/03 07:19:06;;;;;;;12.32;3.60;;;20.10;89.70;;;;;;5072229;28;20040;-77
2023/07/03 07:21:34;;;;;;;14.77;4.17;;;20.10;88.90;;;;;;5075716;28;20035;-78
2023/07/03 07:24:12;;;;;;;12.90;3.70;;;20.10;88.80;;;;;;5076347;28;20269;-78
2023/07/03 07:26:37;;;;;;;13.05;3.65;;;20.10;88.50;;;;;;5075693;28;20043;-78
2023/07/03 07:29:03;;;;;;;10.48;3.30;;;20.20;88.60;;;;;;5074967;28;20438;-78
2023/07/03 07:31:31;;;;;;;13.57;3.90;;;20.20;87.30;;;;;;5075140;28;20450;-77
2023/07/03 07:33:57;;;;;;;8.48;3.40;;;20.10;87.80;;;;;;5075946;28;20111;-78
2023/07/03 07:36:24;;;;;;;9.05;3.10;;;20.10;88.00;;;;;;5075272;28;20111;-77
2023/07/03 07:38:51;;;;;;;9.02;3.25;;;20.20;87.80;;;;;;5074200;28;20081;-77
2023/07/03 07:41:17;;;;;;;9.65;3.20;;;20.30;88.20;;;;;;5074781;28;20461;-77
2023/07/03 07:43:42;;;;;;;10.32;3.58;;;20.30;88.10;;;;;;5075197;28;20127;-78
2023/07/03 07:46:08;;;;;;;11.50;3.22;;;20.30;88.70;;;;;;5076146;28;20035;-78
2023/07/03 07:48:34;;;;;;;8.80;3.00;;;20.40;88.50;;;;;;5075021;28;20120;-77
2023/07/03 07:51:00;;;;;;;12.30;3.35;;;20.40;87.40;;;;;;5073681;28;20366;-78
2023/07/03 07:53:28;;;;;;;9.57;2.55;;;20.40;88.00;;;;;;5074625;28;20028;-77
2023/07/03 07:55:58;;;;;;;7.90;2.45;;;20.40;86.30;;;;;;5073672;28;20028;-78
2023/07/03 07:58:24;;;;;;;10.65;2.75;;;20.30;86.10;;;;;;5075876;28;20012;-77
2023/07/03 08:00:51;;;;;;;10.20;3.13;;;20.30;86.70;;;;;;5073788;28;20456;-78
2023/07/03 08:03:17;;;;;;;11.60;2.75;;;20.30;86.40;;;;;;5074968;28;20028;-78
2023/07/03 08:05:43;;;;;;;9.45;2.75;;;20.40;86.70;;;;;;5075058;28;20024;-77
2023/07/03 08:08:08;;;;;;;8.27;2.78;;;20.30;86.60;;;;;;5074383;28;20365;-78
2023/07/03 08:10:34;;;;;;;8.93;2.90;;;20.30;85.90;;;;;;5075422;28;20342;-78
2023/07/03 08:13:00;;;;;;;6.40;2.30;;;20.30;86.50;;;;;;5073931;28;20086;-78
2023/07/03 08:15:25;;;;;;;11.45;2.50;;;20.40;85.60;;;;;;5075001;28;20028;-79
2023/07/03 08:17:51;;;;;;;6.70;2.60;;;20.60;85.00;;;;;;5074943;28;20081;-78
2023/07/03 08:20:17;;;;;;;7.00;2.22;;;20.70;85.40;;;;;;5074628;28;20115;-78
2023/07/03 08:22:42;;;;;;;8.43;2.50;;;20.70;84.30;;;;;;5073874;28;20052;-78
2023/07/03 08:25:09;;;;;;;5.85;2.33;;;20.70;84.50;;;;;;5073169;28;20032;-78
2023/07/03 08:27:35;;;;;;;13.43;2.85;;;20.70;85.00;;;;;;5073517;28;20366;-78
2023/07/03 08:30:03;;;;;;;7.63;2.80;;;20.80;85.50;;;;;;5074011;28;20021;-78
2023/07/03 08:32:28;;;;;;;10.90;2.83;;;20.90;85.50;;;;;;5074226;28;20024;-78
2023/07/03 08:34:54;;;;;;;5.53;2.40;;;20.80;85.20;;;;;;5074049;28;20042;-78
2023/07/03 08:37:19;;;;;;;5.57;2.50;;;20.80;86.20;;;;;;5075460;28;20024;-82
2023/07/03 08:39:45;;;;;;;6.97;2.63;;;20.70;86.10;;;;;;5074138;28;20020;-77
2023/07/03 08:42:27;;;;;;;8.65;2.78;;;20.60;85.20;;;;;;5073353;28;20056;-78
2023/07/03 08:44:56;;;;;;;9.07;2.65;;;20.60;86.00;;;;;;5075235;28;20054;-78
2023/07/03 08:47:25;;;;;;;8.77;2.70;;;20.70;85.90;;;;;;5074196;28;20108;-78
2023/07/03 08:49:52;;;;;;;8.98;2.53;;;20.90;86.40;;;;;;5073705;28;20154;-79
2023/07/03 08:52:25;;;;;;;9.77;2.42;;;20.90;85.10;;;;;;5073678;28;20024;-78
2023/07/03 08:54:52;;;;;;;7.85;2.60;;;20.90;85.10;;;;;;5074474;28;20028;-79
2023/07/03 08:57:20;;;;;;;11.38;2.97;;;20.90;85.80;;;;;;5074306;28;20365;-79
2023/07/03 08:59:46;;;;;;;6.68;2.28;;;20.80;85.50;;;;;;5073649;28;20025;-78
2023/07/03 09:02:18;;;;;;;11.40;2.70;;;20.80;86.00;;;;;;5073324;28;20024;-79
2023/07/03 09:05:21;;;;;;;6.20;2.17;;;20.80;85.60;;;;;;5073552;28;20682;-78
2023/07/03 09:07:52;;;;;;;7.35;2.00;;;20.80;83.90;;;;;;5072994;28;20402;-78
2023/07/03 09:10:36;;;;;;;5.80;1.95;;;21.00;83.40;;;;;;5074168;28;20023;-78
2023/07/03 09:13:29;;;;;;;7.93;1.92;;;21.20;82.80;;;;;;5072937;28;20071;-78
2023/07/03 09:16:00;;;;;;;5.80;1.70;;;21.30;82.30;;;;;;5074126;28;20108;-78
2023/07/03 09:18:31;;;;;;;6.43;1.88;;;21.40;82.90;;;;;;5073641;28;20021;-78
2023/07/03 09:20:57;;;;;;;4.32;1.65;;;21.40;81.40;;;;;;5071076;28;20115;-81
2023/07/03 09:23:42;;;;;;;10.23;2.05;;;21.30;81.70;;;;;;5082536;28;20111;-80
2023/07/03 09:26:35;;;;;;;7.93;2.15;;;21.20;82.20;;;;;;5065844;28;20055;-82
2023/07/03 09:29:03;;;;;;;6.25;1.90;;;21.20;82.70;;;;;;5053808;28;20446;-82
2023/07/03 09:31:29;;;;;;;7.40;1.80;;;21.20;82.70;;;;;;5074277;28;20032;-83
2023/07/03 09:33:54;;;;;;;5.40;2.00;;;21.20;82.90;;;;;;5072074;28;20413;-80
2023/07/03 09:36:28;;;;;;;7.18;1.73;;;21.30;83.20;;;;;;5080999;28;20028;-79
2023/07/03 09:38:54;;;;;;;5.57;1.60;;;21.30;82.20;;;;;;5081796;28;20024;-79
2023/07/03 09:41:33;;;;;;;6.18;1.60;;;21.30;83.30;;;;;;5072464;28;20024;-79
2023/07/03 09:44:12;;;;;;;9.68;2.55;;;21.40;81.40;;;;;;5061774;28;20020;-80
2023/07/03 09:46:38;;;;;;;5.28;1.70;;;21.40;81.90;;;;;;5083581;28;20027;-81
2023/07/03 09:49:07;;;;;;;7.45;1.70;;;21.30;82.00;;;;;;5073773;28;20031;-80
2023/07/03 09:51:36;;;;;;;9.30;2.13;;;21.30;82.10;;;;;;5072717;28;20024;-81
2023/07/03 09:54:22;;;;;;;5.65;1.60;;;21.20;82.20;;;;;;5073026;28;20036;-79
2023/07/03 09:56:49;;;;;;;6.15;2.38;;;21.20;81.30;;;;;;5073351;28;20116;-79
2023/07/03 09:59:19;;;;;;;8.13;2.15;;;21.30;81.20;;;;;;5073335;28;20021;-79
2023/07/03 10:01:46;;;;;;;6.53;1.98;;;21.30;81.40;;;;;;5074878;28;20031;-80
2023/07/03 10:04:15;;;;;;;9.13;1.50;;;21.40;81.80;;;;;;5073832;28;20039;-79
2023/07/03 10:07:04;;;;;;;8.95;1.63;;;21.50;81.90;;;;;;5074446;28;20109;-79
2023/07/03 10:09:38;;;;;;;7.78;1.98;;;21.60;81.90;;;;;;5073205;28;20021;-79
2023/07/03 10:12:22;;;;;;;10.65;1.50;;;21.60;81.60;;;;;;5072372;28;20520;-79
2023/07/03 10:15:09;;;;;;;4.55;1.70;;;21.80;82.00;;;;;;5074065;28;20033;-81
2023/07/03 10:17:44;;;;;;;5.30;1.40;;;21.90;81.80;;;;;;5073047;28;20338;-79
2023/07/03 10:20:43;;;;;;;6.65;1.50;;;22.00;80.40;;;;;;5073613;28;20181;-79
2023/07/03 10:23:16;;;;;;;7.15;1.60;;;21.90;80.60;;;;;;5065017;28;20044;-79
2023/07/03 10:25:48;;;;;;;3.08;1.17;;;21.90;80.50;;;;;;5077183;28;20017;-79
2023/07/03 10:28:19;;;;;;;3.10;1.20;;;21.90;80.40;;;;;;5072835;28;20020;-79
2023/07/03 10:30:49;;;;;;;4.03;1.05;;;21.90;81.10;;;;;;5073213;28;20035;-79
2023/07/03 10:33:24;;;;;;;6.03;1.38;;;21.90;81.00;;;;;;5073201;28;20120;-79
2023/07/03 10:35:51;;;;;;;5.78;1.15;;;21.90;80.10;;;;;;5072847;28;20021;-79
2023/07/03 10:38:34;;;;;;;2.88;1.08;;;21.80;80.60;;;;;;5072189;28;20016;-80
2023/07/03 10:41:24;;;;;;;5.55;1.25;;;21.80;80.30;;;;;;5072904;28;20115;-80
2023/07/03 10:43:55;;;;;;;3.25;1.05;;;21.90;80.10;;;;;;5072164;28;20477;-81
2023/07/03 10:46:32;;;;;;;5.93;1.08;;;21.80;80.10;;;;;;5073484;28;20028;-79
2023/07/03 10:49:02;;;;;;;4.40;1.25;;;21.80;81.30;;;;;;5071860;28;20046;-79
2023/07/03 10:51:43;;;;;;;5.20;1.40;;;21.80;81.90;;;;;;5071895;28;20020;-79
2023/07/03 10:54:20;;;;;;;4.72;1.23;;;21.80;81.70;;;;;;5071202;28;20028;-79
2023/07/03 10:56:50;;;;;;;4.63;1.52;;;21.90;83.00;;;;;;5072282;28;20111;-79
2023/07/03 10:59:22;;;;;;;7.20;1.33;;;21.90;81.10;;;;;;5072340;28;20059;-79
2023/07/03 11:01:54;;;;;;;9.98;1.50;;;21.70;81.50;;;;;;5073363;28;20461;-79
2023/07/03 11:04:26;;;;;;;7.30;1.95;;;21.60;82.80;;;;;;5072425;28;20032;-79
2023/07/03 11:07:21;;;;;;;5.53;1.70;;;21.70;82.60;;;;;;5072275;28;20472;-81
2023/07/03 11:10:19;;;;;;;3.83;1.40;;;21.90;83.80;;;;;;5069325;28;20034;-79
2023/07/03 11:12:50;;;;;;;6.13;1.83;;;22.00;82.10;;;;;;5063474;28;20106;-79
2023/07/03 11:15:37;;;;;;;8.00;1.42;;;22.10;82.20;;;;;;5071085;28;20070;-79
2023/07/03 11:18:23;;;;;;;6.28;1.17;;;22.50;81.40;;;;;;5071484;28;20032;-80
2023/07/03 11:21:01;;;;;;;3.40;1.10;;;22.80;81.00;;;;;;5073735;28;20025;-80
2023/07/03 11:23:38;;;;;;;3.85;1.10;;;22.90;79.10;;;;;;5072399;28;20063;-80
2023/07/03 11:26:11;;;;;;;6.80;1.00;;;22.90;77.90;;;;;;5072577;28;20028;-79
2023/07/03 11:28:41;;;;;;;3.30;1.10;;;22.90;78.90;;;;;;5071180;28;20052;-78
2023/07/03 11:31:09;;;;;;;2.73;0.70;;;23.00;78.70;;;;;;5071144;28;20032;-78
2023/07/03 11:33:35;;;;;;;4.50;2.00;;;22.90;77.70;;;;;;5071797;28;20376;-79
2023/07/03 11:36:01;;;;;;;2.20;1.02;;;22.80;77.50;;;;;;5071255;28;20028;-79
2023/07/03 11:38:28;;;;;;;2.58;1.00;;;22.90;78.40;;;;;;5073216;28;20052;-79
2023/07/03 11:40:53;;;;;;;2.88;0.75;;;22.80;77.40;;;;;;5069325;28;20207;-81
2023/07/03 11:43:42;;;;;;;2.33;0.80;;;22.60;77.90;;;;;;5068472;28;20203;-79
2023/07/03 11:46:27;;;;;;;4.00;0.60;;;22.50;77.00;;;;;;5068738;28;20028;-79
2023/07/03 11:48:57;;;;;;;3.80;0.73;;;22.40;77.20;;;;;;5071569;28;20359;-79
2023/07/03 11:51:40;;;;;;;3.10;0.90;;;22.40;77.70;;;;;;5071959;28;20025;-78
2023/07/03 11:54:17;;;;;;;3.40;0.77;;;22.70;77.50;;;;;;5073504;28;20041;-79
2023/07/03 11:56:44;;;;;;;3.30;0.73;;;22.70;76.10;;;;;;5077790;28;20020;-80
2023/07/03 11:59:19;;;;;;;1.77;0.63;;;22.70;76.80;;;;;;5076090;28;20017;-78
2023/07/03 12:01:44;;;;;;;2.13;0.57;;;22.80;77.10;;;;;;5086604;28;20032;-79
2023/07/03 12:04:10;;;;;;;1.88;0.77;;;23.00;77.20;;;;;;5077755;28;20410;-79
2023/07/03 12:06:38;;;;;;;1.63;0.70;;;23.10;76.80;;;;;;5091016;28;20096;-79
2023/07/03 12:09:32;;;;;;;4.03;1.02;;;23.10;77.20;;;;;;5078654;28;20159;-80
2023/07/03 12:12:00;;;;;;;3.22;1.00;;;23.20;76.40;;;;;;5074205;28;20028;-81
2023/07/03 12:14:53;;;;;;;3.65;0.93;;;23.30;76.50;;;;;;5071099;28;20036;-79
2023/07/03 12:17:26;;;;;;;2.30;0.95;;;23.60;76.20;;;;;;5075666;28;20020;-79
2023/07/03 12:20:07;;;;;;;2.88;0.70;;;23.60;76.00;;;;;;5091906;28;20038;-79
2023/07/03 12:22:44;;;;;;;1.98;0.85;;;23.70;75.70;;;;;;5063335;28;20077;-80
2023/07/03 12:25:22;;;;;;;1.92;0.80;;;23.80;75.90;;;;;;5073035;28;20023;-79
2023/07/03 12:27:49;;;;;;;2.25;0.60;;;23.90;75.80;;;;;;5096154;28;20078;-79
2023/07/03 12:30:30;;;;;;;4.82;1.40;;;23.90;75.40;;;;;;5094460;28;20040;-79
2023/07/03 12:32:57;;;;;;;3.63;0.90;;;23.70;76.40;;;;;;5094740;28;20032;-79
2023/07/03 12:35:24;;;;;;;1.63;0.80;;;23.70;76.10;;;;;;5094838;28;20027;-79
2023/07/03 12:37:52;;;;;;;1.90;0.75;;;23.50;76.40;;;;;;5091271;28;20020;-79
2023/07/03 12:40:20;;;;;;;2.35;0.68;;;23.30;77.00;;;;;;5094337;28;20697;-79
2023/07/03 12:42:52;;;;;;;1.05;0.73;;;23.10;77.60;;;;;;5088803;28;20048;-79
2023/07/03 12:45:23;;;;;;;3.03;0.80;;;23.10;78.10;;;;;;5094020;28;20673;-78
2023/07/03 12:48:10;;;;;;;1.77;0.57;;;23.00;78.50;;;;;;5093923;28;20119;-79
2023/07/03 12:50:47;;;;;;;2.42;0.52;;;22.90;78.90;;;;;;5068158;28;20064;-79
2023/07/03 12:53:13;;;;;;;3.70;0.55;;;22.70;79.20;;;;;;5075153;28;20028;-79